Delray Beach, FL (33444)

1:05 PM EST on November 24, 2014 (GMT -0500)
Lake Ida | Change Station
CLOSE
Current Station
Personal Weather Station
Location: Delray Beach, FL
Elevation: 10 ft
Nearby Weather Stations

Elev 10 ft 26.47 °N, 80.08 °W | Updated 4 seconds ago

Partly Cloudy
Partly Cloudy
84.9 °F
Feels Like 97 °F
N
7.0
Wind Variable Wind from SSW
Gusts 14.0 mph

Today
High -- | Low -- °F
--% Chance of Precip.
Yesterday
High -- | Low -- °F
Precip. -- in
6:46 AM 5:27 PM
Waxing Crescent, 6% visible
Pressure 29.97 in
Visibility 8.0 miles
Clouds Clear
Heat Index 97 °F
Dew Point 79 °F
Humidity 82%
Rainfall 0.00 in
Snow Depth Not available.
UV 7 out of 12
Pollen 4.00 out of 12
Air Quality Not available.
Flu Activity Not available.
METAR KPMP 241753Z 16012G20KT 8SM CLR 29/24 A2997 RMK AO2 SLP148 T02940244 10300 20256 58019

More Conditions Fewer Conditions

Pressure 29.97 in
Visibility 8.0 miles
Clouds Clear
Heat Index 97 °F
Dew Point 79 °F
Humidity 82%
Rainfall 0.00 in
Snow Depth Not available.
UV 7 out of 12
Pollen 4.00 out of 12
Air Quality Not available.
Flu Activity Not available.
METAR KPMP 241753Z 16012G20KT 8SM CLR 29/24 A2997 RMK AO2 SLP148 T02940244 10300 20256 58019

More Conditions Fewer Conditions

10-Day Weather Forecast

Almanac

Astronomy

Nov. 24, 2014 Rise Set
Actual Time
Civil Twilight
Nautical Twilight
Astronomical Twilight
Moon
Length of Visible Light
Length of Day
Tomorrow will be .
, % of the Moon is Illuminated

Today's Extremes

State Highs State Lows

Community

WunderPhotos

Upload Photos

1,773,381 photos uploaded!

WunderBlogs® & News

Nearby

Air Quality

  Air Quality AQ Index Pollutant
Not available.

Snow Depth

Station Depth Elevation

Earthquake Activity

City Distance Mag. Time & Date
Minimum magnitude displayed is 2.5.

Coastal Water Temperatures

Place Temperature

Nearby Weather Stations